Time;durP1;ratioP1;P1;durP2;ratioP2;P2;SDS_P1;SDS_P2;PMS_P1;PMS_P2;Temp;Humidity;BMP_temperature;BMP_pressure;BME280_temperature;BME280_humidity;BME280_pressure;Samples;Min_cycle;Max_cycle;Signal;HPM_P1;HPM_P2
2023/05/15 00:01:15;;;;;;;41.38;32.92;;;13.20;99.90;;;;;;5077028;28;20101;-72
2023/05/15 00:03:42;;;;;;;47.00;34.25;;;13.20;99.90;;;;;;5076722;28;20468;-72
2023/05/15 00:06:08;;;;;;;39.55;31.48;;;13.20;99.90;;;;;;5076743;28;20044;-72
2023/05/15 00:08:33;;;;;;;37.60;30.42;;;13.20;99.90;;;;;;5076563;28;20115;-72
2023/05/15 00:10:59;;;;;;;35.60;29.83;;;13.10;99.90;;;;;;5076621;28;20066;-72
2023/05/15 00:13:25;;;;;;;36.13;30.00;;;13.10;99.90;;;;;;5076482;28;20032;-72
2023/05/15 00:15:50;;;;;;;32.47;27.30;;;13.00;99.90;;;;;;5060129;28;20040;-72
2023/05/15 00:18:16;;;;;;;50.20;27.10;;;13.00;99.90;;;;;;5076375;28;20039;-72
2023/05/15 00:20:42;;;;;;;30.00;25.95;;;12.90;99.90;;;;;;5076312;28;20040;-72
2023/05/15 00:23:08;;;;;;;28.80;25.70;;;12.90;99.90;;;;;;5076389;28;20122;-72
2023/05/15 00:25:33;;;;;;;31.60;26.33;;;12.80;99.90;;;;;;5076186;28;20055;-72
2023/05/15 00:27:59;;;;;;;51.88;29.80;;;12.80;99.90;;;;;;5076321;28;20492;-72
2023/05/15 00:30:25;;;;;;;46.88;28.38;;;12.80;99.90;;;;;;5076123;28;20043;-72
2023/05/15 00:32:50;;;;;;;32.38;27.58;;;12.70;99.90;;;;;;5076243;28;20039;-72
2023/05/15 00:35:16;;;;;;;34.08;29.60;;;12.70;99.90;;;;;;5075997;28;20048;-72
2023/05/15 00:37:42;;;;;;;40.03;30.50;;;12.70;99.90;;;;;;5076061;28;20036;-72
2023/05/15 00:40:11;;;;;;;33.88;29.58;;;12.70;99.90;;;;;;5075939;28;20036;-72
2023/05/15 00:42:37;;;;;;;35.85;30.67;;;12.70;99.90;;;;;;5075957;28;20055;-72
2023/05/15 00:45:06;;;;;;;34.70;26.67;;;12.80;99.90;;;;;;5075751;28;20036;-72
2023/05/15 00:47:33;;;;;;;35.42;29.27;;;12.70;99.90;;;;;;5076034;28;20405;-72
2023/05/15 00:50:00;;;;;;;39.10;30.65;;;12.70;99.90;;;;;;5075689;28;20036;-72
2023/05/15 00:52:25;;;;;;;36.88;29.92;;;12.70;99.90;;;;;;5075952;28;20043;-72
2023/05/15 00:54:51;;;;;;;32.75;29.13;;;12.70;99.90;;;;;;5075958;28;20048;-72
2023/05/15 00:57:17;;;;;;;35.33;29.65;;;12.70;99.90;;;;;;5075612;28;20048;-72
2023/05/15 00:59:45;;;;;;;35.95;29.92;;;12.70;99.90;;;;;;5075424;28;20079;-72
2023/05/15 01:02:14;;;;;;;35.83;29.23;;;12.70;99.90;;;;;;5075561;28;20040;-72
2023/05/15 01:04:40;;;;;;;42.65;29.77;;;12.70;99.90;;;;;;5075516;28;20512;-72
2023/05/15 01:07:05;;;;;;;34.08;27.42;;;12.70;99.90;;;;;;5075539;28;20036;-71
2023/05/15 01:09:32;;;;;;;32.95;28.52;;;12.70;99.90;;;;;;5058543;28;20036;-71
2023/05/15 01:11:59;;;;;;;43.72;29.48;;;12.70;99.90;;;;;;5075693;28;20032;-71
2023/05/15 01:14:26;;;;;;;37.35;29.88;;;12.70;99.90;;;;;;5075452;28;20098;-72
2023/05/15 01:16:51;;;;;;;32.47;28.17;;;12.60;99.90;;;;;;5075354;28;20412;-71
2023/05/15 01:19:17;;;;;;;32.00;27.58;;;12.60;99.90;;;;;;5075338;28;20043;-71
2023/05/15 01:22:11;;;;;;;34.63;29.17;;;12.50;99.90;;;;;;5058618;28;20122;-72
2023/05/15 01:24:48;;;;;;;36.88;31.08;;;12.60;99.90;;;;;;5058448;28;20043;-72
2023/05/15 01:27:17;;;;;;;37.50;30.58;;;12.60;99.90;;;;;;5075582;28;20051;-72
2023/05/15 01:29:42;;;;;;;35.50;30.50;;;12.50;99.90;;;;;;5058610;28;20040;-72
2023/05/15 01:32:11;;;;;;;39.65;31.38;;;12.50;99.90;;;;;;5075218;28;20097;-72
2023/05/15 01:34:47;;;;;;;38.03;30.42;;;12.60;99.90;;;;;;5058485;28;20044;-72
2023/05/15 01:37:16;;;;;;;39.55;31.00;;;12.50;99.90;;;;;;5058865;28;20493;-72
2023/05/15 01:39:47;;;;;;;38.15;30.70;;;12.50;99.90;;;;;;5075086;28;20055;-72
2023/05/15 01:42:15;;;;;;;36.47;30.50;;;12.50;99.90;;;;;;5075148;28;20496;-72
2023/05/15 01:44:49;;;;;;;39.63;31.88;;;12.60;99.90;;;;;;5074939;28;20047;-72
2023/05/15 01:47:21;;;;;;;36.08;29.55;;;12.60;99.90;;;;;;5075101;28;20040;-71
2023/05/15 01:49:49;;;;;;;38.17;31.70;;;12.60;99.90;;;;;;5075048;28;20044;-72
2023/05/15 01:52:25;;;;;;;48.03;32.25;;;12.60;99.90;;;;;;5074996;28;20037;-72
2023/05/15 01:54:52;;;;;;;51.88;32.92;;;12.60;99.90;;;;;;5075244;28;20044;-72
2023/05/15 01:57:18;;;;;;;41.80;31.88;;;12.50;99.90;;;;;;5074966;28;20115;-72
2023/05/15 01:59:45;;;;;;;41.17;31.48;;;12.40;99.90;;;;;;5074780;28;20040;-72
2023/05/15 02:02:12;;;;;;;36.63;30.17;;;12.40;99.90;;;;;;5058106;28;20119;-72
2023/05/15 02:04:39;;;;;;;39.20;32.13;;;12.40;99.90;;;;;;5074743;28;20089;-72
2023/05/15 02:07:06;;;;;;;34.65;29.42;;;12.50;99.90;;;;;;5074904;28;20044;-72
2023/05/15 02:09:32;;;;;;;37.55;30.92;;;12.40;99.90;;;;;;5074714;28;20032;-72
2023/05/15 02:12:00;;;;;;;37.08;29.95;;;12.40;99.90;;;;;;5075103;28;20086;-72
2023/05/15 02:14:28;;;;;;;41.50;30.35;;;12.40;99.90;;;;;;5058052;28;20036;-72
2023/05/15 02:16:54;;;;;;;46.78;31.63;;;12.40;99.90;;;;;;5058129;28;20047;-72
2023/05/15 02:19:20;;;;;;;41.35;30.30;;;12.40;99.90;;;;;;5057871;28;20122;-72
2023/05/15 02:21:46;;;;;;;39.08;30.63;;;12.40;99.90;;;;;;5078093;28;20127;-72
2023/05/15 02:24:11;;;;;;;34.22;29.77;;;12.30;99.90;;;;;;5078539;28;20040;-72
2023/05/15 02:27:01;;;;;;;37.60;29.45;;;12.30;99.90;;;;;;5078542;28;20039;-72
2023/05/15 02:29:33;;;;;;;56.55;30.83;;;12.30;99.90;;;;;;5062109;28;20036;-72
2023/05/15 02:32:20;;;;;;;40.28;31.40;;;12.20;99.90;;;;;;5061779;28;20404;-72
2023/05/15 02:35:00;;;;;;;42.17;31.35;;;12.20;99.90;;;;;;5078430;28;20046;-72
2023/05/15 02:37:29;;;;;;;93.55;32.80;;;12.20;99.90;;;;;;5079516;28;20036;-72
2023/05/15 02:39:58;;;;;;;49.97;30.92;;;12.20;99.90;;;;;;5078203;28;20123;-72
2023/05/15 02:42:29;;;;;;;45.53;31.33;;;12.10;99.90;;;;;;5078297;28;20195;-72
2023/05/15 02:44:56;;;;;;;61.20;33.20;;;12.10;99.90;;;;;;5078136;28;20042;-72
2023/05/15 02:47:23;;;;;;;39.35;30.88;;;12.10;99.90;;;;;;5078433;28;20092;-72
2023/05/15 02:49:49;;;;;;;68.28;31.50;;;12.10;99.90;;;;;;5077992;28;20036;-72
2023/05/15 02:52:15;;;;;;;47.60;33.15;;;12.10;99.90;;;;;;5078079;28;20039;-72
2023/05/15 02:54:40;;;;;;;38.13;29.67;;;12.10;99.90;;;;;;5078272;28;20046;-72
2023/05/15 02:57:07;;;;;;;38.97;32.05;;;12.20;99.90;;;;;;5077925;28;20444;-72
2023/05/15 02:59:33;;;;;;;41.30;32.90;;;12.20;99.90;;;;;;5077882;28;20032;-72
2023/05/15 03:01:59;;;;;;;41.20;33.15;;;12.20;99.90;;;;;;5078118;28;20052;-72
2023/05/15 03:04:25;;;;;;;45.58;33.35;;;12.20;99.90;;;;;;5077708;28;20465;-72
2023/05/15 03:06:50;;;;;;;40.38;32.67;;;12.20;99.90;;;;;;5078003;28;20040;-72
2023/05/15 03:09:16;;;;;;;44.92;33.65;;;12.20;99.90;;;;;;5078013;28;20101;-72
2023/05/15 03:11:42;;;;;;;40.63;31.73;;;12.20;99.90;;;;;;5061278;28;20044;-72
2023/05/15 03:14:08;;;;;;;46.97;32.03;;;12.20;99.90;;;;;;5077726;28;20043;-72
2023/05/15 03:16:35;;;;;;;46.72;33.90;;;12.20;99.90;;;;;;5077673;28;20032;-72
2023/05/15 03:19:01;;;;;;;44.78;34.00;;;12.20;99.90;;;;;;5077474;28;20165;-72
2023/05/15 03:21:27;;;;;;;41.85;32.63;;;12.20;99.90;;;;;;5077556;28;20081;-72
2023/05/15 03:23:52;;;;;;;50.47;34.67;;;12.20;99.90;;;;;;5077466;28;20036;-72
2023/05/15 03:26:18;;;;;;;54.20;33.25;;;12.20;99.90;;;;;;5077473;28;20040;-72
2023/05/15 03:28:43;;;;;;;43.45;32.50;;;12.20;99.90;;;;;;5060713;28;20036;-72
2023/05/15 03:31:09;;;;;;;38.55;31.77;;;12.20;99.90;;;;;;5077342;28;20178;-72
2023/05/15 03:33:37;;;;;;;36.33;30.10;;;12.10;99.90;;;;;;5077335;28;20044;-72
2023/05/15 03:36:02;;;;;;;43.60;29.83;;;12.10;99.90;;;;;;5077360;28;20049;-72
2023/05/15 03:38:28;;;;;;;35.47;28.83;;;12.00;99.90;;;;;;5077174;28;20036;-72
2023/05/15 03:40:54;;;;;;;37.20;29.13;;;12.00;99.90;;;;;;5077228;28;20111;-72
2023/05/15 03:43:19;;;;;;;40.60;28.92;;;12.00;99.90;;;;;;5077236;28;20039;-72
2023/05/15 03:45:45;;;;;;;35.08;27.55;;;12.00;99.90;;;;;;5077011;28;20044;-72
2023/05/15 03:48:10;;;;;;;33.78;28.05;;;11.90;99.90;;;;;;5060650;28;20029;-72
2023/05/15 03:50:36;;;;;;;34.58;27.77;;;11.90;99.90;;;;;;5076991;28;20100;-72
2023/05/15 03:53:01;;;;;;;36.10;28.67;;;11.90;99.90;;;;;;5077001;28;20036;-72
2023/05/15 03:55:27;;;;;;;37.00;28.92;;;11.90;99.90;;;;;;5077200;28;20044;-72
2023/05/15 03:57:53;;;;;;;40.03;29.50;;;11.90;99.90;;;;;;5076864;28;20082;-72
2023/05/15 04:00:19;;;;;;;38.65;30.02;;;11.90;99.90;;;;;;5059992;28;20066;-72
2023/05/15 04:02:44;;;;;;;37.85;28.63;;;11.80;99.90;;;;;;5077042;28;20086;-72
2023/05/15 04:05:10;;;;;;;37.58;28.10;;;11.80;99.90;;;;;;5076741;28;20484;-72
2023/05/15 04:07:36;;;;;;;35.88;27.55;;;11.80;99.90;;;;;;5076628;28;20385;-72
2023/05/15 04:10:03;;;;;;;35.60;27.02;;;11.80;99.90;;;;;;5059947;28;20063;-72
2023/05/15 04:12:30;;;;;;;35.83;27.10;;;11.70;99.90;;;;;;5076818;28;20051;-72
2023/05/15 04:14:58;;;;;;;34.47;26.92;;;11.60;99.90;;;;;;5076816;28;20055;-72
2023/05/15 04:17:24;;;;;;;36.95;27.38;;;11.70;99.90;;;;;;5076446;28;20039;-72
2023/05/15 04:19:49;;;;;;;32.50;25.73;;;11.60;99.90;;;;;;5076655;28;20101;-72
2023/05/15 04:22:15;;;;;;;35.22;26.50;;;11.60;99.90;;;;;;5076390;28;20523;-72
2023/05/15 04:24:41;;;;;;;33.20;25.83;;;11.50;99.90;;;;;;5059801;28;20036;-72
2023/05/15 04:27:06;;;;;;;32.50;25.58;;;11.50;99.90;;;;;;5076335;28;20040;-72
2023/05/15 04:29:32;;;;;;;32.33;26.15;;;11.50;99.90;;;;;;5076146;28;20047;-72
2023/05/15 04:31:57;;;;;;;32.47;25.65;;;11.40;99.90;;;;;;5076236;28;20036;-71
2023/05/15 04:34:23;;;;;;;30.83;25.20;;;11.50;99.90;;;;;;5059476;28;20040;-72
2023/05/15 04:36:49;;;;;;;30.05;25.27;;;11.50;99.90;;;;;;5076002;28;20040;-72
2023/05/15 04:39:15;;;;;;;33.25;26.05;;;11.50;99.90;;;;;;5075966;28;20036;-71
2023/05/15 04:41:40;;;;;;;30.35;23.98;;;11.50;99.90;;;;;;5076277;28;20093;-72
2023/05/15 04:44:07;;;;;;;30.27;25.30;;;11.50;99.90;;;;;;5075394;28;20040;-72
2023/05/15 04:46:33;;;;;;;29.10;24.95;;;11.50;99.90;;;;;;5059251;28;20043;-72
2023/05/15 04:48:59;;;;;;;30.80;26.27;;;11.50;99.90;;;;;;5059191;28;20078;-72
2023/05/15 04:51:25;;;;;;;28.83;25.00;;;11.50;99.90;;;;;;5076031;28;20073;-72
2023/05/15 04:53:50;;;;;;;24.35;21.75;;;11.50;99.90;;;;;;5075792;28;20036;-72
2023/05/15 04:56:16;;;;;;;28.42;23.40;;;11.50;99.90;;;;;;5076062;28;20135;-72
2023/05/15 04:58:42;;;;;;;26.73;23.83;;;11.50;99.90;;;;;;5059020;28;20488;-72
2023/05/15 05:01:07;;;;;;;26.90;24.00;;;11.50;99.90;;;;;;5059253;28;20090;-72
2023/05/15 05:03:33;;;;;;;28.63;24.00;;;11.50;99.90;;;;;;5075539;28;20407;-72
2023/05/15 05:05:59;;;;;;;28.42;22.67;;;11.50;99.90;;;;;;5075803;28;20040;-72
2023/05/15 05:08:27;;;;;;;27.02;22.48;;;11.50;99.90;;;;;;5075430;28;20151;-72
2023/05/15 05:10:56;;;;;;;25.67;21.95;;;11.50;99.90;;;;;;5075548;28;20123;-71
2023/05/15 05:13:22;;;;;;;26.10;23.27;;;11.50;99.90;;;;;;5059011;28;20028;-71
2023/05/15 05:15:47;;;;;;;26.50;22.85;;;11.60;99.90;;;;;;5075706;28;20522;-72
2023/05/15 05:18:13;;;;;;;23.98;21.05;;;11.60;99.90;;;;;;5058733;28;20044;-72
2023/05/15 05:20:39;;;;;;;25.00;22.27;;;11.60;99.90;;;;;;5075491;28;20044;-72
2023/05/15 05:23:04;;;;;;;25.85;22.42;;;11.70;99.90;;;;;;5075318;28;20086;-72
2023/05/15 05:25:30;;;;;;;24.40;21.65;;;11.70;99.90;;;;;;5075093;28;20089;-72
2023/05/15 05:27:56;;;;;;;24.33;21.77;;;11.80;99.90;;;;;;5075265;28;20048;-72
2023/05/15 05:30:21;;;;;;;25.30;22.60;;;11.80;99.90;;;;;;5058493;28;20094;-72
2023/05/15 05:32:47;;;;;;;26.13;21.58;;;11.80;99.90;;;;;;5075174;28;20058;-72
2023/05/15 05:35:13;;;;;;;23.65;21.10;;;11.90;99.90;;;;;;5075214;28;20051;-72
2023/05/15 05:37:38;;;;;;;23.50;20.38;;;12.00;99.90;;;;;;5075456;28;20062;-72
2023/05/15 05:40:05;;;;;;;27.52;22.00;;;12.00;99.90;;;;;;5058343;28;20078;-72
2023/05/15 05:42:31;;;;;;;26.02;21.77;;;12.10;99.90;;;;;;5075080;28;20119;-71
2023/05/15 05:44:57;;;;;;;24.60;20.27;;;12.10;99.90;;;;;;5075027;28;20147;-72
2023/05/15 05:47:22;;;;;;;24.30;21.70;;;12.10;99.90;;;;;;5075084;28;20043;-72
2023/05/15 05:49:48;;;;;;;25.00;21.00;;;12.20;99.90;;;;;;5075313;28;20036;-72
2023/05/15 05:52:14;;;;;;;22.35;19.83;;;12.20;99.90;;;;;;5075430;28;20039;-72
2023/05/15 05:54:41;;;;;;;23.50;20.83;;;12.10;99.90;;;;;;5074938;28;20044;-72
2023/05/15 05:57:08;;;;;;;22.05;19.73;;;12.20;99.90;;;;;;5078938;28;20043;-72
2023/05/15 05:59:34;;;;;;;22.83;20.42;;;12.30;99.90;;;;;;5079544;28;20055;-72
2023/05/15 06:02:00;;;;;;;22.65;20.30;;;12.30;99.90;;;;;;5079104;28;20093;-72
2023/05/15 06:04:25;;;;;;;21.15;19.05;;;12.40;99.90;;;;;;5062269;28;20036;-72
2023/05/15 06:06:52;;;;;;;21.33;19.02;;;12.50;99.90;;;;;;5079038;28;20443;-72
2023/05/15 06:09:18;;;;;;;23.58;19.15;;;12.60;99.90;;;;;;5062134;28;20125;-72
2023/05/15 06:11:44;;;;;;;23.08;19.10;;;12.70;99.90;;;;;;5078866;28;20064;-72
2023/05/15 06:14:10;;;;;;;21.95;19.65;;;12.80;99.90;;;;;;5079083;28;20044;-72
2023/05/15 06:16:35;;;;;;;19.88;17.88;;;12.80;99.90;;;;;;5078848;28;20043;-72
2023/05/15 06:19:01;;;;;;;21.20;18.85;;;12.90;99.90;;;;;;5078742;28;20041;-72
2023/05/15 06:21:27;;;;;;;21.65;19.42;;;12.90;99.90;;;;;;5078754;28;20051;-71
2023/05/15 06:23:52;;;;;;;21.88;19.20;;;12.90;99.90;;;;;;5078573;28;20054;-71
2023/05/15 06:26:18;;;;;;;21.95;19.60;;;12.90;99.90;;;;;;5078937;28;20392;-71
2023/05/15 06:28:44;;;;;;;21.92;18.17;;;12.90;99.90;;;;;;5062037;28;20047;-71
2023/05/15 06:31:09;;;;;;;19.67;17.60;;;13.00;99.90;;;;;;5062110;28;20032;-72
2023/05/15 06:33:35;;;;;;;21.75;18.23;;;13.00;99.90;;;;;;5078853;28;20461;-72
2023/05/15 06:36:01;;;;;;;20.25;17.95;;;13.10;99.90;;;;;;5061792;28;20500;-72
2023/05/15 06:38:26;;;;;;;20.38;18.23;;;13.10;99.90;;;;;;5078344;28;20028;-71
2023/05/15 06:40:52;;;;;;;20.40;18.17;;;13.10;99.90;;;;;;5078321;28;20040;-71
2023/05/15 06:43:17;;;;;;;21.75;18.27;;;13.20;99.90;;;;;;5078565;28;20046;-71
2023/05/15 06:45:43;;;;;;;22.42;18.95;;;13.20;99.90;;;;;;5078191;28;20459;-71
2023/05/15 06:48:08;;;;;;;21.05;18.45;;;13.20;99.90;;;;;;5078468;28;20185;-71
2023/05/15 06:50:34;;;;;;;21.30;18.10;;;13.20;99.90;;;;;;5078433;28;20035;-71
2023/05/15 06:53:00;;;;;;;20.70;18.48;;;13.30;99.90;;;;;;5078214;28;20403;-71
2023/05/15 06:55:25;;;;;;;23.30;18.33;;;13.20;99.90;;;;;;5078155;28;20044;-71
2023/05/15 06:57:51;;;;;;;20.50;18.30;;;13.20;99.90;;;;;;5078162;28;20039;-71
2023/05/15 07:00:17;;;;;;;19.83;17.73;;;13.20;99.90;;;;;;5077902;28;20299;-71
2023/05/15 07:02:42;;;;;;;18.02;16.23;;;13.20;99.90;;;;;;5078257;28;20047;-71
2023/05/15 07:05:09;;;;;;;21.25;18.00;;;13.20;99.90;;;;;;5077910;28;20032;-71
2023/05/15 07:07:35;;;;;;;20.35;18.13;;;13.30;99.90;;;;;;5060776;28;20085;-71
2023/05/15 07:10:00;;;;;;;18.33;16.42;;;13.30;99.90;;;;;;5077799;28;20036;-72
2023/05/15 07:12:26;;;;;;;19.73;17.40;;;13.40;99.90;;;;;;5077869;28;20079;-72
2023/05/15 07:14:51;;;;;;;19.55;17.58;;;13.50;99.90;;;;;;5077932;28;20044;-72
2023/05/15 07:17:18;;;;;;;19.58;17.52;;;13.60;99.90;;;;;;5061119;28;20048;-72
2023/05/15 07:19:43;;;;;;;18.63;16.75;;;13.80;99.90;;;;;;5077614;28;20043;-72
2023/05/15 07:22:09;;;;;;;17.17;15.18;;;14.00;99.90;;;;;;5078013;28;20048;-72
2023/05/15 07:24:35;;;;;;;17.90;15.93;;;14.10;99.90;;;;;;5077685;28;20078;-72
2023/05/15 07:27:00;;;;;;;20.38;15.43;;;14.30;99.90;;;;;;5061392;28;20032;-72
2023/05/15 07:29:26;;;;;;;23.02;15.57;;;14.30;99.90;;;;;;5077822;28;20481;-72
2023/05/15 07:31:52;;;;;;;18.45;16.55;;;14.40;99.90;;;;;;5077602;28;20488;-72
2023/05/15 07:34:17;;;;;;;18.45;16.45;;;14.50;99.90;;;;;;5077703;28;20083;-72
2023/05/15 07:36:43;;;;;;;19.77;17.67;;;14.50;99.90;;;;;;5061031;28;20467;-71
2023/05/15 07:39:09;;;;;;;20.23;17.15;;;14.50;99.90;;;;;;5077334;28;20088;-71
2023/05/15 07:41:34;;;;;;;20.33;18.17;;;14.60;99.90;;;;;;5060837;28;20178;-71
2023/05/15 07:44:00;;;;;;;21.40;19.20;;;14.60;99.90;;;;;;5077198;28;20393;-71
2023/05/15 07:46:26;;;;;;;20.50;18.35;;;14.60;99.90;;;;;;5077222;28;20040;-71
2023/05/15 07:48:51;;;;;;;20.83;18.73;;;14.70;99.90;;;;;;5077066;28;20122;-71
2023/05/15 07:51:17;;;;;;;20.02;17.98;;;14.70;99.90;;;;;;5077161;28;20035;-71
2023/05/15 07:53:42;;;;;;;23.77;17.98;;;14.80;99.90;;;;;;5060466;28;20036;-72
2023/05/15 07:56:08;;;;;;;20.17;17.83;;;14.90;99.90;;;;;;5077291;28;20040;-72
2023/05/15 07:58:35;;;;;;;19.60;17.63;;;15.10;99.90;;;;;;5077113;28;20373;-72
2023/05/15 08:01:01;;;;;;;21.90;17.02;;;15.20;99.90;;;;;;5077089;28;20044;-72
2023/05/15 08:03:27;;;;;;;18.60;16.77;;;15.40;99.90;;;;;;5076847;28;20032;-71
2023/05/15 08:05:52;;;;;;;18.67;16.70;;;15.50;99.90;;;;;;5076757;28;20059;-72
2023/05/15 08:08:18;;;;;;;17.10;15.15;;;15.70;99.90;;;;;;5060065;28;20042;-72
2023/05/15 08:10:43;;;;;;;17.00;15.25;;;15.80;99.90;;;;;;5076634;28;20141;-72
2023/05/15 08:13:09;;;;;;;16.30;14.70;;;16.00;99.90;;;;;;5076631;28;20072;-72
2023/05/15 08:15:35;;;;;;;17.27;14.10;;;16.00;99.00;;;;;;5076826;28;20043;-72
2023/05/15 08:18:00;;;;;;;14.02;12.13;;;16.00;98.20;;;;;;5075639;28;20461;-72
2023/05/15 08:20:26;;;;;;;17.67;15.73;;;16.10;97.70;;;;;;5076693;28;20043;-72
2023/05/15 08:22:51;;;;;;;17.33;15.52;;;16.30;97.70;;;;;;5076383;28;20408;-72
2023/05/15 08:25:17;;;;;;;17.45;15.65;;;16.40;97.50;;;;;;5076328;28;20087;-72
2023/05/15 08:27:42;;;;;;;15.73;14.13;;;16.40;97.00;;;;;;5076356;28;20055;-72
2023/05/15 08:30:08;;;;;;;18.77;16.00;;;16.50;97.10;;;;;;5076249;28;20032;-72
2023/05/15 08:32:34;;;;;;;18.63;15.88;;;16.70;97.00;;;;;;5059706;28;20040;-72
2023/05/15 08:35:00;;;;;;;19.95;15.95;;;16.70;96.60;;;;;;5076187;28;20040;-72
2023/05/15 08:37:25;;;;;;;18.17;14.18;;;16.90;96.50;;;;;;5076059;28;20047;-72
2023/05/15 08:39:51;;;;;;;16.60;14.88;;;17.10;96.50;;;;;;5075954;28;20036;-72
2023/05/15 08:42:52;;;;;;;23.85;15.90;;;17.10;96.10;;;;;;5076049;28;20040;-71
2023/05/15 08:45:19;;;;;;;20.95;14.40;;;17.30;95.70;;;;;;5076091;28;20047;-71
2023/05/15 08:47:44;;;;;;;16.80;15.00;;;17.40;95.30;;;;;;5075934;28;20092;-74
2023/05/15 08:50:15;;;;;;;19.02;15.60;;;17.50;94.90;;;;;;5075873;28;20127;-72
2023/05/15 08:52:44;;;;;;;16.33;13.35;;;17.60;93.90;;;;;;5076126;28;20032;-74
2023/05/15 08:55:10;;;;;;;16.95;13.93;;;17.70;94.10;;;;;;5059111;28;20050;-72
2023/05/15 08:57:37;;;;;;;17.08;14.95;;;17.80;93.20;;;;;;5059428;28;20036;-72
2023/05/15 09:00:13;;;;;;;15.70;14.18;;;17.80;92.70;;;;;;5075445;28;20146;-72
2023/05/15 09:02:40;;;;;;;15.82;13.85;;;17.90;92.70;;;;;;5075994;28;20040;-72
2023/05/15 09:05:07;;;;;;;15.95;14.27;;;17.90;92.40;;;;;;5075562;28;20036;-71
2023/05/15 09:07:33;;;;;;;17.35;14.80;;;17.90;91.80;;;;;;5075558;28;20522;-72
2023/05/15 09:10:01;;;;;;;18.17;14.70;;;18.00;91.40;;;;;;5075898;28;20126;-72
2023/05/15 09:12:27;;;;;;;17.35;15.10;;;18.00;91.60;;;;;;5075539;28;20036;-71
2023/05/15 09:15:14;;;;;;;18.38;14.32;;;18.10;90.90;;;;;;5075663;28;20066;-72
2023/05/15 09:17:41;;;;;;;15.52;14.02;;;18.20;90.80;;;;;;5075552;28;20042;-72
2023/05/15 09:20:26;;;;;;;16.63;13.10;;;18.30;90.70;;;;;;5059172;28;20044;-72
2023/05/15 09:22:51;;;;;;;14.80;13.30;;;18.40;89.40;;;;;;5075412;28;20492;-72
2023/05/15 09:25:41;;;;;;;17.02;13.25;;;18.50;88.30;;;;;;5075319;28;20092;-72
2023/05/15 09:28:08;;;;;;;11.73;10.13;;;18.60;88.10;;;;;;5075553;28;20036;-72
2023/05/15 09:30:37;;;;;;;12.57;10.13;;;18.80;88.40;;;;;;5074982;28;20393;-72
2023/05/15 09:33:03;;;;;;;13.20;11.80;;;18.90;85.20;;;;;;5075543;28;20065;-71
2023/05/15 09:35:37;;;;;;;12.40;10.30;;;19.00;84.80;;;;;;5075322;28;20085;-72
2023/05/15 09:38:07;;;;;;;13.40;9.90;;;19.10;83.70;;;;;;5075470;28;20088;-72
2023/05/15 09:40:32;;;;;;;12.43;9.68;;;19.20;83.90;;;;;;5075920;28;20097;-72
2023/05/15 09:42:59;;;;;;;11.20;9.80;;;19.40;83.30;;;;;;5058521;28;20040;-72
2023/05/15 09:45:25;;;;;;;12.40;10.90;;;19.60;83.30;;;;;;5074999;28;20040;-72
2023/05/15 09:47:52;;;;;;;14.35;10.80;;;19.80;83.50;;;;;;5058300;28;20062;-72
2023/05/15 09:50:23;;;;;;;10.02;8.32;;;20.00;83.30;;;;;;5074978;28;20036;-72
2023/05/15 09:52:50;;;;;;;12.10;8.73;;;20.20;79.70;;;;;;5075083;28;20040;-72
2023/05/15 09:55:18;;;;;;;10.85;8.02;;;20.30;78.30;;;;;;5075265;28;20079;-72
2023/05/15 09:58:03;;;;;;;10.27;8.07;;;20.40;77.00;;;;;;5075013;28;20500;-72
2023/05/15 10:00:29;;;;;;;11.55;8.35;;;20.50;77.20;;;;;;5058439;28;20052;-72
2023/05/15 10:02:57;;;;;;;14.82;9.45;;;20.60;78.70;;;;;;5074898;28;20079;-72
2023/05/15 10:05:26;;;;;;;10.77;9.68;;;20.70;76.30;;;;;;5074743;28;20052;-72
2023/05/15 10:07:54;;;;;;;11.73;10.10;;;20.70;76.00;;;;;;5075087;28;20040;-72
2023/05/15 10:10:21;;;;;;;12.30;9.32;;;20.80;75.40;;;;;;5075036;28;20123;-72
2023/05/15 10:12:49;;;;;;;12.15;9.43;;;20.80;74.90;;;;;;5075042;28;20572;-72
2023/05/15 10:15:15;;;;;;;11.35;10.02;;;21.00;73.90;;;;;;5074972;28;20512;-72
2023/05/15 10:17:43;;;;;;;15.07;10.60;;;21.10;74.40;;;;;;5074830;28;20078;-72
2023/05/15 10:20:10;;;;;;;13.18;9.73;;;21.20;73.60;;;;;;5074744;28;20048;-72
2023/05/15 10:22:40;;;;;;;15.15;10.82;;;21.30;74.10;;;;;;5074826;28;20055;-72
2023/05/15 10:25:12;;;;;;;14.45;11.02;;;21.40;73.50;;;;;;5074645;28;20048;-72
2023/05/15 10:27:39;;;;;;;12.40;10.10;;;21.60;72.90;;;;;;5058016;28;20822;-72
2023/05/15 10:30:08;;;;;;;14.82;10.90;;;21.70;72.00;;;;;;5074619;28;20043;-72
2023/05/15 10:32:35;;;;;;;10.80;9.27;;;21.70;70.30;;;;;;5074715;28;20047;-72
2023/05/15 10:35:01;;;;;;;15.27;9.40;;;21.70;70.70;;;;;;5074915;28;20075;-72
2023/05/15 10:37:29;;;;;;;12.48;9.60;;;21.50;71.00;;;;;;5074622;28;20044;-72
2023/05/15 10:39:57;;;;;;;14.18;11.68;;;21.50;71.00;;;;;;5057907;28;20040;-72
2023/05/15 10:42:25;;;;;;;14.43;12.27;;;21.50;71.10;;;;;;5077017;28;20079;-73
2023/05/15 10:44:58;;;;;;;13.13;11.27;;;21.50;71.90;;;;;;5078265;28;20082;-72
2023/05/15 10:47:25;;;;;;;12.70;11.18;;;21.40;71.00;;;;;;5078645;28;20032;-72
2023/05/15 10:49:51;;;;;;;14.43;11.45;;;21.20;70.50;;;;;;5078089;28;20377;-72
2023/05/15 10:52:17;;;;;;;13.60;10.27;;;21.10;69.80;;;;;;5078214;28;20090;-72
2023/05/15 10:54:42;;;;;;;10.43;9.38;;;21.10;70.90;;;;;;5061535;28;20044;-73
2023/05/15 10:57:09;;;;;;;11.40;9.07;;;21.40;70.80;;;;;;5078124;28;20044;-72
2023/05/15 10:59:35;;;;;;;13.82;9.32;;;21.40;68.60;;;;;;5077940;28;20092;-72
2023/05/15 11:02:23;;;;;;;11.20;8.48;;;21.40;68.90;;;;;;5078013;28;20126;-72
2023/05/15 11:04:57;;;;;;;12.48;8.68;;;21.40;69.00;;;;;;5077981;28;20086;-72
2023/05/15 11:07:25;;;;;;;11.63;9.00;;;21.30;67.90;;;;;;5077991;28;20510;-72
2023/05/15 11:09:52;;;;;;;10.75;8.98;;;21.20;68.50;;;;;;5077791;28;20032;-72
2023/05/15 11:12:18;;;;;;;11.25;8.93;;;21.60;69.30;;;;;;5077874;28;20044;-72
2023/05/15 11:14:53;;;;;;;12.48;8.50;;;21.90;70.20;;;;;;5078103;28;20047;-72
2023/05/15 11:17:21;;;;;;;11.27;8.85;;;21.80;68.50;;;;;;5077781;28;20097;-73
2023/05/15 11:19:50;;;;;;;12.98;9.90;;;21.80;69.40;;;;;;5060975;28;20048;-73
2023/05/15 11:22:24;;;;;;;14.00;10.60;;;21.80;69.80;;;;;;5061049;28;20549;-73
2023/05/15 11:25:03;;;;;;;11.93;10.43;;;21.80;69.30;;;;;;5077676;28;20043;-73
2023/05/15 11:27:29;;;;;;;14.20;9.90;;;21.80;70.20;;;;;;5077623;28;20036;-73
2023/05/15 11:30:11;;;;;;;11.13;9.18;;;21.60;69.50;;;;;;5077630;28;20059;-73
2023/05/15 11:32:47;;;;;;;11.70;8.85;;;21.50;68.50;;;;;;5077723;28;20381;-73
2023/05/15 11:35:23;;;;;;;12.57;9.02;;;21.70;70.50;;;;;;5061029;28;20111;-73
2023/05/15 11:37:53;;;;;;;9.68;8.48;;;21.60;67.80;;;;;;5060692;28;20127;-72
2023/05/15 11:40:20;;;;;;;9.25;7.95;;;21.50;68.50;;;;;;5077265;28;20097;-72
2023/05/15 11:43:15;;;;;;;11.77;7.00;;;21.40;68.30;;;;;;5060641;28;20040;-73
2023/05/15 11:45:42;;;;;;;10.30;7.57;;;21.60;68.40;;;;;;5077239;28;20044;-72
2023/05/15 11:48:13;;;;;;;10.70;7.68;;;21.90;68.70;;;;;;5077478;28;20067;-72
2023/05/15 11:50:40;;;;;;;8.10;7.28;;;22.10;67.80;;;;;;5061463;28;20040;-72
2023/05/15 11:53:07;;;;;;;11.20;7.90;;;22.20;67.20;;;;;;5075781;28;20032;-72
2023/05/15 11:55:35;;;;;;;7.78;6.32;;;22.30;65.10;;;;;;5060325;28;20416;-72
2023/05/15 11:58:01;;;;;;;7.10;5.75;;;22.40;64.70;;;;;;5076937;28;20047;-72
2023/05/15 12:00:27;;;;;;;7.05;5.10;;;22.20;64.50;;;;;;5076726;28;20036;-72
2023/05/15 12:02:53;;;;;;;7.72;6.10;;;22.00;62.60;;;;;;5076878;28;20044;-73
2023/05/15 12:05:18;;;;;;;8.25;6.70;;;21.90;63.80;;;;;;5076778;28;20051;-73
2023/05/15 12:07:44;;;;;;;8.52;7.43;;;21.90;64.70;;;;;;5076796;28;20032;-73
2023/05/15 12:10:11;;;;;;;8.65;7.32;;;22.10;65.10;;;;;;5059995;28;20036;-73
2023/05/15 12:12:42;;;;;;;8.50;7.32;;;22.40;66.00;;;;;;5076900;28;20044;-73
2023/05/15 12:15:12;;;;;;;10.60;7.55;;;22.80;66.30;;;;;;5076564;28;20044;-73
2023/05/15 12:17:39;;;;;;;10.88;8.05;;;23.10;65.90;;;;;;5076639;28;20042;-73
2023/05/15 12:20:12;;;;;;;8.00;7.20;;;23.20;65.40;;;;;;5076417;28;20382;-73
2023/05/15 12:22:39;;;;;;;10.65;7.00;;;23.10;64.00;;;;;;5076512;28;20233;-72
2023/05/15 12:25:06;;;;;;;11.43;8.10;;;23.00;65.30;;;;;;5076313;28;20412;-72
2023/05/15 12:27:32;;;;;;;10.10;7.68;;;23.20;65.80;;;;;;5076654;28;20040;-73
2023/05/15 12:29:58;;;;;;;8.38;7.25;;;23.40;65.40;;;;;;5076465;28;20542;-72